AirNav   Everest Fuels
 
 909 users online  

FA21 Memorial Hospital West Helistop
Pembroke Pines, Florida, USA

GOING TO PEMBROKE PINES?


FAA INFORMATION EFFECTIVE 21 MAY 2020

Location

FAA Identifier: FA21
Lat/Long: 26-00-47.1700N 080-18-40.1800W
26-00.786167N 080-18.669667W
26.0131028,-80.3111611
(estimated)
Elevation: 12 ft. / 4 m (estimated)
Variation: 04W (1990)
From city: 1 mile N of PEMBROKE PINES, FL
Time zone: UTC -4 (UTC -5 during Standard Time)
Zip code: 33026

Heliport Operations

Heliport use: Private use, MEDICAL USE.
Activation date: 01/1994
Control tower: no
ARTCC: MIAMI CENTER
FSS: GAINESVILLE FLIGHT SERVICE STATION
Attendance: CONTINUOUS
Wind indicator: yes
Segmented circle: no

Heliport Communications

WX ASOS at HWO (4 nm E): PHONE 954-983-5904
WX ASOS at OPF (7 nm S): 125.9 (305-681-4063)
WX ASOS at FLL (9 nm E): PHONE 954-359-7857
WX ASOS at MIA (13 nm S): 119.15 (305-870-0235)
WX ASOS at FXE (13 nm NE): PHONE 954-772-2537
WX ASOS at PMP (18 nm NE): PHONE 954-783-3720

Nearby radio navigation aids

VOR radial/distance  VOR name  Freq  Var
FLLr251/8.6FORT LAUDERDALE VOR/DME114.4006W
DHPr013/13.0DOLPHIN VORTAC113.9004W
VKZr336/17.8VIRGINIA KEY VOR/DME117.1004W

Heliport Services

Runway Information

Helipad H1

Dimensions: 50 x 50 ft. / 15 x 15 m
Surface: concrete
Latitude: 26-00.786167N
Longitude: 080-18.669667W
Elevation: 12.0 ft.
Traffic pattern: leftleft

Heliport Ownership and Management from official FAA records

Ownership: Privately-owned
Owner: S. BROWARD HOSPITAL DISTRICT
703 NORTH FLAMINGO ROAD
PEMBROKE PINES, FL 33028
Phone 954-433-7143
Manager: LUIS RODRIGUEZ
703 NORTH FLAMINGO ROAD
PEMBROKE PINES, FL 33028
Phone 954-844-7143

Additional Remarks

FOR CD CTC MIAMI APCH AT 305-869-5432.

Instrument Procedures

There are no published instrument procedures at FA21.

Some nearby airports with instrument procedures:

KHWO - North Perry Airport (4 nm E)
KOPF - Miami-Opa Locka Executive Airport (7 nm S)
KFLL - Fort Lauderdale/Hollywood International Airport (9 nm E)
KMIA - Miami International Airport (13 nm S)
KFXE - Fort Lauderdale Executive Airport (13 nm NE)
KPMP - Pompano Beach Airpark (18 nm NE)
 
Loc | Ops | Rwys | IFR | FBO | Links
Com | Nav | Svcs | Stats | Notes


 
Area around FA21 (Memorial Hospital West Helistop)
 
Road maps at: MapQuest Bing Google
 
Aerial photo
No photo
 
Sectional chart

 
Airport distance calculator
Flying to Memorial Hospital West Helistop? Find the distance to fly.

From to FA21

Sunrise and sunset
Times for 06-Jun-2020
 Local
(UTC-4)
 Zulu
(UTC)
Morning civil twilight06:0410:04
Sunrise06:3010:30
Sunset20:1000:10
Evening civil twilight20:3600:36

Current date and time
Zulu (UTC)  06-Jun-2020 13:26:26
Local (UTC-4)  06-Jun-2020 09:26:26
 
METAR
KHWO 
4nm E 
061253Z 13012G18KT 10SM BKN019 OVC028 A3000 RMK AO2 SLP160
KOPF 
6nm S 
061253Z 13017KT 10SM BKN020 OVC030 28/25 A3000 RMK AO2 SLP158 T02830250
KFLL 
9nm E 
061253Z 14017G22KT 10SM SCT021 BKN029 BKN200 29/26 A2999 RMK AO2 SLP153 T02890256
KFXE 
13nm NE 
061302Z AUTO 14014G21KT 10SM SCT019 BKN029 28/25 A3000 RMK AO2 T02830250 $
KMIA 
14nm S 
061253Z 12013G21KT 10SM SCT015 BKN023 OVC030 28/26 A2999 RMK AO2 SLP155 T02830256
KPMP 
18nm NE 
061253Z 14015G22KT 8SM FEW020 SCT036 27/25 A2999 RMK AO2 SLP157 T02670250 $
TAF
KOPF 
6nm S 
061153Z 0612/0712 12011KT P6SM VCSH FEW015 SCT025 BKN050 FM061400 15015KT P6SM VCTS SCT025CB BKN035 FM062100 15007KT P6SM FEW025 SCT050 BKN150
KFLL 
9nm E 
061153Z 0612/0718 12011KT P6SM VCSH FEW015 SCT025 BKN050 FM061400 15015KT P6SM VCTS SCT025CB BKN035 FM062100 15007KT P6SM FEW025 SCT050 BKN150 FM071200 16010KT P6SM SCT030 BKN100
KFXE 
13nm NE 
061153Z 0612/0712 12011KT P6SM VCSH FEW015 SCT025 BKN050 FM061400 15015KT P6SM VCTS SCT025CB BKN035 FM062100 15007KT P6SM FEW025 SCT050 BKN150
KMIA 
14nm S 
061153Z 0612/0718 12011KT P6SM VCSH FEW015 SCT025 BKN050 FM061400 15015KT P6SM VCTS SCT025CB BKN035 FM062100 15007KT P6SM FEW025 SCT050 BKN150 FM071200 16010KT P6SM SCT030 BKN100
NOTAMs
Click for the latest NOTAMs
NOTAMs are issued by the DoD/FAA and will open in a separate window not controlled by AirNav.

 

 
 

Would you like to see your business listed on this page?

 If your business provides an interesting product or service to pilots, flight crews, aircraft, or users of the Memorial Hospital West Helistop, you should consider listing it here.  To start the listing process, click on the button below
 
Add a business
 

Other Pages about Memorial Hospital West Helistop

Update a link
 
Copyright © AirNav, LLC. All rights reserved. Privacy Policy  Contact